sensor_id;sensor_type;location;lat;lon;timestamp;P1;durP1;ratioP1;P2;durP2;ratioP2
20441;SDS011;10380;52.102;20.614;2023-10-09T00:01:06;7.00;;;4.90;;
20441;SDS011;10380;52.102;20.614;2023-10-09T00:03:40;8.90;;;4.60;;
20441;SDS011;10380;52.102;20.614;2023-10-09T00:06:09;7.37;;;3.90;;
20441;SDS011;10380;52.102;20.614;2023-10-09T00:08:40;8.67;;;4.77;;
20441;SDS011;10380;52.102;20.614;2023-10-09T00:11:11;10.53;;;5.13;;
20441;SDS011;10380;52.102;20.614;2023-10-09T00:13:45;7.27;;;4.30;;
20441;SDS011;10380;52.102;20.614;2023-10-09T00:16:16;8.50;;;4.80;;
20441;SDS011;10380;52.102;20.614;2023-10-09T00:19:02;8.30;;;4.23;;
20441;SDS011;10380;52.102;20.614;2023-10-09T00:21:47;10.53;;;5.03;;
20441;SDS011;10380;52.102;20.614;2023-10-09T00:24:15;8.47;;;4.67;;
20441;SDS011;10380;52.102;20.614;2023-10-09T00:26:51;7.47;;;4.10;;
20441;SDS011;10380;52.102;20.614;2023-10-09T00:29:22;8.23;;;4.03;;
20441;SDS011;10380;52.102;20.614;2023-10-09T00:31:50;6.83;;;4.20;;
20441;SDS011;10380;52.102;20.614;2023-10-09T00:34:18;12.10;;;4.83;;
20441;SDS011;10380;52.102;20.614;2023-10-09T00:36:46;8.10;;;4.00;;
20441;SDS011;10380;52.102;20.614;2023-10-09T00:39:18;7.80;;;4.47;;
20441;SDS011;10380;52.102;20.614;2023-10-09T00:42:04;8.73;;;3.90;;
20441;SDS011;10380;52.102;20.614;2023-10-09T00:44:33;9.37;;;4.23;;
20441;SDS011;10380;52.102;20.614;2023-10-09T00:47:11;8.53;;;4.30;;
20441;SDS011;10380;52.102;20.614;2023-10-09T00:50:02;9.50;;;4.87;;
20441;SDS011;10380;52.102;20.614;2023-10-09T00:52:45;7.77;;;4.20;;
20441;SDS011;10380;52.102;20.614;2023-10-09T00:55:17;9.50;;;4.43;;
20441;SDS011;10380;52.102;20.614;2023-10-09T00:58:04;6.70;;;4.07;;
20441;SDS011;10380;52.102;20.614;2023-10-09T01:00:43;5.97;;;3.63;;
20441;SDS011;10380;52.102;20.614;2023-10-09T01:03:10;8.20;;;4.13;;
20441;SDS011;10380;52.102;20.614;2023-10-09T01:05:49;7.53;;;4.07;;
20441;SDS011;10380;52.102;20.614;2023-10-09T01:08:18;11.43;;;4.43;;
20441;SDS011;10380;52.102;20.614;2023-10-09T01:10:55;6.60;;;3.90;;
20441;SDS011;10380;52.102;20.614;2023-10-09T01:13:24;7.00;;;4.40;;
20441;SDS011;10380;52.102;20.614;2023-10-09T01:15:55;6.23;;;3.70;;
20441;SDS011;10380;52.102;20.614;2023-10-09T01:18:25;5.03;;;3.47;;
20441;SDS011;10380;52.102;20.614;2023-10-09T01:21:02;7.43;;;3.90;;
20441;SDS011;10380;52.102;20.614;2023-10-09T01:23:29;8.03;;;3.83;;
20441;SDS011;10380;52.102;20.614;2023-10-09T01:25:56;9.00;;;3.63;;
20441;SDS011;10380;52.102;20.614;2023-10-09T01:28:23;7.67;;;3.70;;
20441;SDS011;10380;52.102;20.614;2023-10-09T01:30:52;6.27;;;4.40;;
20441;SDS011;10380;52.102;20.614;2023-10-09T01:33:18;6.63;;;3.80;;
20441;SDS011;10380;52.102;20.614;2023-10-09T01:35:49;8.23;;;3.93;;
20441;SDS011;10380;52.102;20.614;2023-10-09T01:38:20;6.27;;;3.70;;
20441;SDS011;10380;52.102;20.614;2023-10-09T01:40:57;7.33;;;4.10;;
20441;SDS011;10380;52.102;20.614;2023-10-09T01:43:33;8.50;;;5.30;;
20441;SDS011;10380;52.102;20.614;2023-10-09T01:46:00;9.60;;;4.60;;
20441;SDS011;10380;52.102;20.614;2023-10-09T01:48:27;5.10;;;3.43;;
20441;SDS011;10380;52.102;20.614;2023-10-09T01:50:54;8.87;;;3.93;;
20441;SDS011;10380;52.102;20.614;2023-10-09T01:53:21;6.20;;;4.00;;
20441;SDS011;10380;52.102;20.614;2023-10-09T01:55:54;6.70;;;3.77;;
20441;SDS011;10380;52.102;20.614;2023-10-09T01:58:22;6.53;;;3.47;;
20441;SDS011;10380;52.102;20.614;2023-10-09T02:00:50;4.87;;;3.50;;
20441;SDS011;10380;52.102;20.614;2023-10-09T02:03:23;7.00;;;3.57;;
20441;SDS011;10380;52.102;20.614;2023-10-09T02:05:52;8.53;;;4.47;;
20441;SDS011;10380;52.102;20.614;2023-10-09T02:08:29;6.17;;;3.53;;
20441;SDS011;10380;52.102;20.614;2023-10-09T02:11:01;5.97;;;3.97;;
20441;SDS011;10380;52.102;20.614;2023-10-09T02:13:29;9.77;;;4.43;;
20441;SDS011;10380;52.102;20.614;2023-10-09T02:15:56;5.90;;;3.80;;
20441;SDS011;10380;52.102;20.614;2023-10-09T02:18:43;6.97;;;4.03;;
20441;SDS011;10380;52.102;20.614;2023-10-09T02:21:25;7.50;;;3.07;;
20441;SDS011;10380;52.102;20.614;2023-10-09T02:24:01;6.97;;;4.07;;
20441;SDS011;10380;52.102;20.614;2023-10-09T02:26:33;8.50;;;4.43;;
20441;SDS011;10380;52.102;20.614;2023-10-09T02:29:06;6.50;;;3.80;;
20441;SDS011;10380;52.102;20.614;2023-10-09T02:31:46;8.67;;;3.67;;
20441;SDS011;10380;52.102;20.614;2023-10-09T02:34:18;6.00;;;3.57;;
20441;SDS011;10380;52.102;20.614;2023-10-09T02:36:48;8.97;;;4.20;;
20441;SDS011;10380;52.102;20.614;2023-10-09T02:39:16;11.87;;;4.60;;
20441;SDS011;10380;52.102;20.614;2023-10-09T02:41:59;8.63;;;3.53;;
20441;SDS011;10380;52.102;20.614;2023-10-09T02:44:41;6.27;;;3.33;;
20441;SDS011;10380;52.102;20.614;2023-10-09T02:47:17;6.00;;;3.70;;
20441;SDS011;10380;52.102;20.614;2023-10-09T02:49:51;5.83;;;3.77;;
20441;SDS011;10380;52.102;20.614;2023-10-09T02:52:18;4.73;;;3.43;;
20441;SDS011;10380;52.102;20.614;2023-10-09T02:54:46;4.80;;;3.57;;
20441;SDS011;10380;52.102;20.614;2023-10-09T02:57:13;7.27;;;3.90;;
20441;SDS011;10380;52.102;20.614;2023-10-09T02:59:50;7.03;;;3.33;;
20441;SDS011;10380;52.102;20.614;2023-10-09T03:02:20;8.43;;;3.23;;
20441;SDS011;10380;52.102;20.614;2023-10-09T03:04:50;8.23;;;3.80;;
20441;SDS011;10380;52.102;20.614;2023-10-09T03:07:21;5.20;;;3.17;;
20441;SDS011;10380;52.102;20.614;2023-10-09T03:09:50;4.33;;;3.10;;
20441;SDS011;10380;52.102;20.614;2023-10-09T03:12:16;5.97;;;3.67;;
20441;SDS011;10380;52.102;20.614;2023-10-09T03:14:45;6.13;;;3.33;;
20441;SDS011;10380;52.102;20.614;2023-10-09T03:17:12;7.50;;;3.60;;
20441;SDS011;10380;52.102;20.614;2023-10-09T03:19:40;4.77;;;3.57;;
20441;SDS011;10380;52.102;20.614;2023-10-09T03:22:10;4.83;;;3.00;;
20441;SDS011;10380;52.102;20.614;2023-10-09T03:24:38;5.17;;;3.60;;
20441;SDS011;10380;52.102;20.614;2023-10-09T03:27:16;8.37;;;3.70;;
20441;SDS011;10380;52.102;20.614;2023-10-09T03:29:43;6.47;;;3.47;;
20441;SDS011;10380;52.102;20.614;2023-10-09T03:32:16;6.83;;;3.50;;
20441;SDS011;10380;52.102;20.614;2023-10-09T03:34:43;6.23;;;3.67;;
20441;SDS011;10380;52.102;20.614;2023-10-09T03:37:11;5.20;;;3.43;;
20441;SDS011;10380;52.102;20.614;2023-10-09T03:39:58;10.97;;;3.50;;
20441;SDS011;10380;52.102;20.614;2023-10-09T03:42:25;6.77;;;3.83;;
20441;SDS011;10380;52.102;20.614;2023-10-09T03:44:52;6.87;;;3.40;;
20441;SDS011;10380;52.102;20.614;2023-10-09T03:47:20;11.73;;;3.90;;
20441;SDS011;10380;52.102;20.614;2023-10-09T03:49:49;8.97;;;3.40;;
20441;SDS011;10380;52.102;20.614;2023-10-09T03:52:21;5.30;;;3.50;;
20441;SDS011;10380;52.102;20.614;2023-10-09T03:54:52;8.60;;;4.03;;
20441;SDS011;10380;52.102;20.614;2023-10-09T03:57:19;5.73;;;3.13;;
20441;SDS011;10380;52.102;20.614;2023-10-09T03:59:47;8.07;;;3.50;;
20441;SDS011;10380;52.102;20.614;2023-10-09T04:02:15;6.40;;;3.10;;
20441;SDS011;10380;52.102;20.614;2023-10-09T04:04:43;6.70;;;3.17;;
20441;SDS011;10380;52.102;20.614;2023-10-09T04:07:14;5.67;;;2.90;;
20441;SDS011;10380;52.102;20.614;2023-10-09T04:09:43;7.20;;;3.33;;
20441;SDS011;10380;52.102;20.614;2023-10-09T04:12:29;12.17;;;3.73;;
20441;SDS011;10380;52.102;20.614;2023-10-09T04:14:57;5.53;;;2.97;;
20441;SDS011;10380;52.102;20.614;2023-10-09T04:17:28;6.30;;;3.40;;
20441;SDS011;10380;52.102;20.614;2023-10-09T04:20:02;6.90;;;3.70;;
20441;SDS011;10380;52.102;20.614;2023-10-09T04:23:00;6.50;;;3.37;;
20441;SDS011;10380;52.102;20.614;2023-10-09T04:25:31;8.00;;;4.40;;
20441;SDS011;10380;52.102;20.614;2023-10-09T04:28:12;3.97;;;3.10;;
20441;SDS011;10380;52.102;20.614;2023-10-09T04:30:41;7.63;;;3.50;;
20441;SDS011;10380;52.102;20.614;2023-10-09T04:33:35;6.90;;;3.50;;
20441;SDS011;10380;52.102;20.614;2023-10-09T04:36:09;5.63;;;3.43;;
20441;SDS011;10380;52.102;20.614;2023-10-09T04:38:48;5.27;;;3.33;;
20441;SDS011;10380;52.102;20.614;2023-10-09T04:41:31;7.43;;;3.40;;
20441;SDS011;10380;52.102;20.614;2023-10-09T04:44:00;9.37;;;3.83;;
20441;SDS011;10380;52.102;20.614;2023-10-09T04:46:50;9.10;;;4.23;;
20441;SDS011;10380;52.102;20.614;2023-10-09T04:49:40;12.30;;;4.47;;
20441;SDS011;10380;52.102;20.614;2023-10-09T04:52:17;8.90;;;5.13;;
20441;SDS011;10380;52.102;20.614;2023-10-09T04:55:05;9.90;;;5.37;;
20441;SDS011;10380;52.102;20.614;2023-10-09T04:57:33;12.17;;;5.77;;
20441;SDS011;10380;52.102;20.614;2023-10-09T05:00:10;11.57;;;5.00;;
20441;SDS011;10380;52.102;20.614;2023-10-09T05:02:55;9.73;;;5.43;;
20441;SDS011;10380;52.102;20.614;2023-10-09T05:05:24;10.93;;;4.63;;
20441;SDS011;10380;52.102;20.614;2023-10-09T05:08:09;8.73;;;4.17;;
20441;SDS011;10380;52.102;20.614;2023-10-09T05:10:49;10.57;;;4.83;;
20441;SDS011;10380;52.102;20.614;2023-10-09T05:13:28;8.00;;;4.50;;
20441;SDS011;10380;52.102;20.614;2023-10-09T05:18:42;5.73;;;3.00;;
20441;SDS011;10380;52.102;20.614;2023-10-09T05:21:12;10.87;;;4.63;;
20441;SDS011;10380;52.102;20.614;2023-10-09T05:23:41;6.87;;;4.43;;
20441;SDS011;10380;52.102;20.614;2023-10-09T05:26:15;9.03;;;4.47;;
20441;SDS011;10380;52.102;20.614;2023-10-09T05:29:00;8.47;;;3.97;;
20441;SDS011;10380;52.102;20.614;2023-10-09T05:31:48;5.40;;;3.20;;
20441;SDS011;10380;52.102;20.614;2023-10-09T05:34:43;8.50;;;3.47;;
20441;SDS011;10380;52.102;20.614;2023-10-09T05:37:26;8.20;;;3.83;;
20441;SDS011;10380;52.102;20.614;2023-10-09T05:40:05;6.40;;;3.20;;
20441;SDS011;10380;52.102;20.614;2023-10-09T05:42:42;11.87;;;4.00;;
20441;SDS011;10380;52.102;20.614;2023-10-09T05:45:10;6.83;;;3.67;;
20441;SDS011;10380;52.102;20.614;2023-10-09T05:47:45;6.57;;;4.00;;
20441;SDS011;10380;52.102;20.614;2023-10-09T05:50:25;8.43;;;3.67;;
20441;SDS011;10380;52.102;20.614;2023-10-09T05:52:53;9.47;;;3.73;;
20441;SDS011;10380;52.102;20.614;2023-10-09T05:55:25;9.27;;;3.50;;
20441;SDS011;10380;52.102;20.614;2023-10-09T05:57:53;6.27;;;3.33;;
20441;SDS011;10380;52.102;20.614;2023-10-09T06:00:40;6.03;;;3.90;;
20441;SDS011;10380;52.102;20.614;2023-10-09T06:03:25;9.70;;;3.57;;
20441;SDS011;10380;52.102;20.614;2023-10-09T06:05:53;5.47;;;2.90;;
20441;SDS011;10380;52.102;20.614;2023-10-09T06:08:24;8.43;;;4.00;;
20441;SDS011;10380;52.102;20.614;2023-10-09T06:11:14;6.73;;;3.20;;
20441;SDS011;10380;52.102;20.614;2023-10-09T06:14:00;8.87;;;4.10;;
20441;SDS011;10380;52.102;20.614;2023-10-09T06:16:40;7.10;;;3.73;;
20441;SDS011;10380;52.102;20.614;2023-10-09T06:19:09;10.07;;;4.20;;
20441;SDS011;10380;52.102;20.614;2023-10-09T06:21:46;6.40;;;3.47;;
20441;SDS011;10380;52.102;20.614;2023-10-09T06:24:19;6.17;;;3.50;;
20441;SDS011;10380;52.102;20.614;2023-10-09T06:26:49;7.27;;;3.63;;
20441;SDS011;10380;52.102;20.614;2023-10-09T06:32:18;8.30;;;4.60;;
20441;SDS011;10380;52.102;20.614;2023-10-09T06:34:46;9.07;;;3.67;;
20441;SDS011;10380;52.102;20.614;2023-10-09T06:37:21;9.03;;;3.97;;
20441;SDS011;10380;52.102;20.614;2023-10-09T06:39:51;7.57;;;3.73;;
20441;SDS011;10380;52.102;20.614;2023-10-09T06:42:30;10.20;;;4.83;;
20441;SDS011;10380;52.102;20.614;2023-10-09T06:45:01;9.83;;;4.77;;
20441;SDS011;10380;52.102;20.614;2023-10-09T06:47:47;8.17;;;4.37;;
20441;SDS011;10380;52.102;20.614;2023-10-09T06:50:34;7.13;;;4.10;;
20441;SDS011;10380;52.102;20.614;2023-10-09T06:53:31;10.40;;;4.40;;
20441;SDS011;10380;52.102;20.614;2023-10-09T06:56:28;7.40;;;3.83;;
20441;SDS011;10380;52.102;20.614;2023-10-09T07:01:30;7.53;;;4.03;;
20441;SDS011;10380;52.102;20.614;2023-10-09T07:04:04;6.07;;;4.07;;
20441;SDS011;10380;52.102;20.614;2023-10-09T07:07:07;10.10;;;4.37;;
20441;SDS011;10380;52.102;20.614;2023-10-09T07:09:36;9.13;;;4.50;;
20441;SDS011;10380;52.102;20.614;2023-10-09T07:12:10;9.73;;;4.10;;
20441;SDS011;10380;52.102;20.614;2023-10-09T07:14:47;5.97;;;3.60;;
20441;SDS011;10380;52.102;20.614;2023-10-09T07:17:13;7.60;;;4.27;;
20441;SDS011;10380;52.102;20.614;2023-10-09T07:20:12;8.53;;;4.10;;
20441;SDS011;10380;52.102;20.614;2023-10-09T07:22:40;8.17;;;4.07;;
20441;SDS011;10380;52.102;20.614;2023-10-09T07:25:22;5.13;;;3.20;;
20441;SDS011;10380;52.102;20.614;2023-10-09T07:28:09;6.00;;;3.37;;
20441;SDS011;10380;52.102;20.614;2023-10-09T07:30:56;8.60;;;3.70;;
20441;SDS011;10380;52.102;20.614;2023-10-09T07:33:25;6.53;;;3.60;;
20441;SDS011;10380;52.102;20.614;2023-10-09T07:36:03;5.67;;;3.13;;
20441;SDS011;10380;52.102;20.614;2023-10-09T07:38:35;10.93;;;3.50;;
20441;SDS011;10380;52.102;20.614;2023-10-09T07:41:02;7.27;;;3.40;;
20441;SDS011;10380;52.102;20.614;2023-10-09T07:43:37;5.90;;;3.40;;
20441;SDS011;10380;52.102;20.614;2023-10-09T07:46:12;10.43;;;3.37;;
20441;SDS011;10380;52.102;20.614;2023-10-09T07:49:18;6.23;;;3.00;;
20441;SDS011;10380;52.102;20.614;2023-10-09T07:51:52;5.97;;;3.20;;
20441;SDS011;10380;52.102;20.614;2023-10-09T07:54:19;6.07;;;3.40;;
20441;SDS011;10380;52.102;20.614;2023-10-09T07:56:59;5.07;;;3.17;;
20441;SDS011;10380;52.102;20.614;2023-10-09T07:59:35;4.80;;;3.07;;
20441;SDS011;10380;52.102;20.614;2023-10-09T08:02:07;9.63;;;3.93;;
20441;SDS011;10380;52.102;20.614;2023-10-09T08:04:40;7.43;;;3.63;;
20441;SDS011;10380;52.102;20.614;2023-10-09T08:07:16;4.40;;;2.40;;
20441;SDS011;10380;52.102;20.614;2023-10-09T08:10:07;7.13;;;2.80;;
20441;SDS011;10380;52.102;20.614;2023-10-09T08:12:44;5.43;;;2.67;;
20441;SDS011;10380;52.102;20.614;2023-10-09T08:15:11;6.87;;;2.47;;
20441;SDS011;10380;52.102;20.614;2023-10-09T08:17:51;4.20;;;2.47;;
20441;SDS011;10380;52.102;20.614;2023-10-09T08:20:30;5.33;;;2.10;;
20441;SDS011;10380;52.102;20.614;2023-10-09T08:23:16;5.40;;;2.20;;
20441;SDS011;10380;52.102;20.614;2023-10-09T08:26:04;6.07;;;2.40;;
20441;SDS011;10380;52.102;20.614;2023-10-09T08:28:41;3.97;;;1.73;;
20441;SDS011;10380;52.102;20.614;2023-10-09T08:31:11;4.20;;;2.37;;
20441;SDS011;10380;52.102;20.614;2023-10-09T08:33:58;5.00;;;2.23;;
20441;SDS011;10380;52.102;20.614;2023-10-09T08:36:28;4.63;;;2.87;;
20441;SDS011;10380;52.102;20.614;2023-10-09T08:38:58;4.10;;;2.30;;
20441;SDS011;10380;52.102;20.614;2023-10-09T08:41:27;3.67;;;2.07;;
20441;SDS011;10380;52.102;20.614;2023-10-09T08:43:57;3.17;;;1.93;;
20441;SDS011;10380;52.102;20.614;2023-10-09T08:46:26;4.10;;;2.50;;
20441;SDS011;10380;52.102;20.614;2023-10-09T08:48:58;5.37;;;2.27;;
20441;SDS011;10380;52.102;20.614;2023-10-09T08:51:26;4.23;;;2.00;;
20441;SDS011;10380;52.102;20.614;2023-10-09T08:53:54;3.87;;;1.90;;
20441;SDS011;10380;52.102;20.614;2023-10-09T08:56:22;3.40;;;2.00;;
20441;SDS011;10380;52.102;20.614;2023-10-09T08:58:52;2.97;;;1.90;;
20441;SDS011;10380;52.102;20.614;2023-10-09T09:01:23;4.83;;;2.97;;
20441;SDS011;10380;52.102;20.614;2023-10-09T09:03:52;5.00;;;2.53;;
20441;SDS011;10380;52.102;20.614;2023-10-09T09:06:22;5.07;;;2.77;;
20441;SDS011;10380;52.102;20.614;2023-10-09T09:08:49;4.23;;;2.30;;
20441;SDS011;10380;52.102;20.614;2023-10-09T09:11:25;7.17;;;3.07;;
20441;SDS011;10380;52.102;20.614;2023-10-09T09:14:04;7.57;;;3.37;;
20441;SDS011;10380;52.102;20.614;2023-10-09T09:16:33;7.00;;;3.37;;
20441;SDS011;10380;52.102;20.614;2023-10-09T09:19:04;7.73;;;3.30;;
20441;SDS011;10380;52.102;20.614;2023-10-09T09:21:39;6.30;;;3.07;;
20441;SDS011;10380;52.102;20.614;2023-10-09T09:24:11;6.80;;;3.70;;
20441;SDS011;10380;52.102;20.614;2023-10-09T09:26:53;4.93;;;3.40;;
20441;SDS011;10380;52.102;20.614;2023-10-09T09:32:06;5.57;;;3.17;;
20441;SDS011;10380;52.102;20.614;2023-10-09T09:34:45;5.10;;;3.03;;
20441;SDS011;10380;52.102;20.614;2023-10-09T09:37:26;6.93;;;3.40;;
20441;SDS011;10380;52.102;20.614;2023-10-09T09:39:58;6.30;;;3.40;;
20441;SDS011;10380;52.102;20.614;2023-10-09T09:42:44;6.27;;;4.43;;
20441;SDS011;10380;52.102;20.614;2023-10-09T09:45:14;7.77;;;3.90;;
20441;SDS011;10380;52.102;20.614;2023-10-09T09:47:43;6.07;;;3.53;;
20441;SDS011;10380;52.102;20.614;2023-10-09T09:50:18;5.87;;;3.77;;
20441;SDS011;10380;52.102;20.614;2023-10-09T09:52:55;4.37;;;2.80;;
20441;SDS011;10380;52.102;20.614;2023-10-09T09:55:26;4.07;;;2.47;;
20441;SDS011;10380;52.102;20.614;2023-10-09T09:58:00;4.87;;;2.43;;
20441;SDS011;10380;52.102;20.614;2023-10-09T10:00:33;4.57;;;3.20;;
20441;SDS011;10380;52.102;20.614;2023-10-09T10:03:10;5.97;;;3.03;;
20441;SDS011;10380;52.102;20.614;2023-10-09T10:05:43;6.17;;;4.30;;
20441;SDS011;10380;52.102;20.614;2023-10-09T10:08:19;6.33;;;3.27;;
20441;SDS011;10380;52.102;20.614;2023-10-09T10:10:47;6.07;;;3.33;;
20441;SDS011;10380;52.102;20.614;2023-10-09T10:16:10;5.20;;;3.27;;
20441;SDS011;10380;52.102;20.614;2023-10-09T10:18:53;6.47;;;3.40;;
20441;SDS011;10380;52.102;20.614;2023-10-09T10:21:34;7.53;;;3.57;;
20441;SDS011;10380;52.102;20.614;2023-10-09T10:24:53;8.37;;;3.90;;
20441;SDS011;10380;52.102;20.614;2023-10-09T10:32:59;11.77;;;5.63;;
20441;SDS011;10380;52.102;20.614;2023-10-09T10:35:42;10.33;;;5.17;;
20441;SDS011;10380;52.102;20.614;2023-10-09T10:38:25;9.50;;;4.00;;
20441;SDS011;10380;52.102;20.614;2023-10-09T10:41:09;7.07;;;3.93;;
20441;SDS011;10380;52.102;20.614;2023-10-09T10:43:46;6.33;;;4.17;;
20441;SDS011;10380;52.102;20.614;2023-10-09T10:46:20;10.73;;;5.23;;
20441;SDS011;10380;52.102;20.614;2023-10-09T10:49:05;7.57;;;4.30;;
20441;SDS011;10380;52.102;20.614;2023-10-09T10:51:39;8.73;;;4.57;;
20441;SDS011;10380;52.102;20.614;2023-10-09T10:54:07;6.73;;;4.47;;
20441;SDS011;10380;52.102;20.614;2023-10-09T10:56:53;7.50;;;4.37;;
20441;SDS011;10380;52.102;20.614;2023-10-09T10:59:23;10.23;;;4.73;;
20441;SDS011;10380;52.102;20.614;2023-10-09T11:01:56;6.67;;;4.23;;
20441;SDS011;10380;52.102;20.614;2023-10-09T11:04:27;7.30;;;4.73;;
20441;SDS011;10380;52.102;20.614;2023-10-09T11:06:59;7.57;;;4.87;;
20441;SDS011;10380;52.102;20.614;2023-10-09T11:09:52;9.37;;;4.47;;
20441;SDS011;10380;52.102;20.614;2023-10-09T11:12:31;10.33;;;4.90;;
20441;SDS011;10380;52.102;20.614;2023-10-09T11:15:09;7.80;;;4.57;;
20441;SDS011;10380;52.102;20.614;2023-10-09T11:17:59;9.40;;;4.87;;
20441;SDS011;10380;52.102;20.614;2023-10-09T11:20:32;6.40;;;4.57;;
20441;SDS011;10380;52.102;20.614;2023-10-09T11:23:04;7.83;;;5.40;;
20441;SDS011;10380;52.102;20.614;2023-10-09T11:25:38;8.07;;;4.57;;
20441;SDS011;10380;52.102;20.614;2023-10-09T11:28:17;9.47;;;4.80;;
20441;SDS011;10380;52.102;20.614;2023-10-09T11:31:09;6.27;;;4.57;;
20441;SDS011;10380;52.102;20.614;2023-10-09T11:33:46;8.20;;;4.93;;
20441;SDS011;10380;52.102;20.614;2023-10-09T11:36:15;7.73;;;5.00;;
20441;SDS011;10380;52.102;20.614;2023-10-09T11:38:42;8.43;;;5.07;;
20441;SDS011;10380;52.102;20.614;2023-10-09T11:41:16;9.57;;;5.40;;
20441;SDS011;10380;52.102;20.614;2023-10-09T11:43:51;8.50;;;4.80;;
20441;SDS011;10380;52.102;20.614;2023-10-09T11:46:19;8.40;;;5.33;;
20441;SDS011;10380;52.102;20.614;2023-10-09T11:49:19;9.47;;;5.07;;
20441;SDS011;10380;52.102;20.614;2023-10-09T11:51:46;8.97;;;6.40;;
20441;SDS011;10380;52.102;20.614;2023-10-09T11:54:36;6.97;;;4.90;;
20441;SDS011;10380;52.102;20.614;2023-10-09T11:57:03;8.13;;;5.20;;
20441;SDS011;10380;52.102;20.614;2023-10-09T11:59:31;8.63;;;5.33;;
20441;SDS011;10380;52.102;20.614;2023-10-09T12:02:05;8.63;;;4.97;;
20441;SDS011;10380;52.102;20.614;2023-10-09T12:04:39;7.97;;;4.93;;
20441;SDS011;10380;52.102;20.614;2023-10-09T12:07:12;7.10;;;4.23;;
20441;SDS011;10380;52.102;20.614;2023-10-09T12:09:39;8.50;;;4.80;;
20441;SDS011;10380;52.102;20.614;2023-10-09T12:12:07;8.43;;;4.40;;
20441;SDS011;10380;52.102;20.614;2023-10-09T12:14:37;6.60;;;4.63;;
20441;SDS011;10380;52.102;20.614;2023-10-09T12:17:05;6.57;;;4.30;;
20441;SDS011;10380;52.102;20.614;2023-10-09T12:19:35;8.37;;;4.43;;
20441;SDS011;10380;52.102;20.614;2023-10-09T12:22:05;8.33;;;4.50;;
20441;SDS011;10380;52.102;20.614;2023-10-09T12:24:37;7.23;;;4.20;;
20441;SDS011;10380;52.102;20.614;2023-10-09T12:27:04;8.73;;;4.90;;
20441;SDS011;10380;52.102;20.614;2023-10-09T12:29:37;8.30;;;4.27;;
20441;SDS011;10380;52.102;20.614;2023-10-09T12:32:12;6.67;;;3.77;;
20441;SDS011;10380;52.102;20.614;2023-10-09T12:34:39;6.70;;;5.57;;
20441;SDS011;10380;52.102;20.614;2023-10-09T12:37:06;6.40;;;4.00;;
20441;SDS011;10380;52.102;20.614;2023-10-09T12:39:33;11.40;;;4.27;;
20441;SDS011;10380;52.102;20.614;2023-10-09T12:42:00;6.13;;;4.00;;
20441;SDS011;10380;52.102;20.614;2023-10-09T12:44:35;6.60;;;4.23;;
20441;SDS011;10380;52.102;20.614;2023-10-09T12:47:06;7.33;;;4.80;;
20441;SDS011;10380;52.102;20.614;2023-10-09T12:49:33;6.23;;;3.80;;
20441;SDS011;10380;52.102;20.614;2023-10-09T12:52:00;7.30;;;3.83;;
20441;SDS011;10380;52.102;20.614;2023-10-09T12:54:27;8.63;;;3.90;;
20441;SDS011;10380;52.102;20.614;2023-10-09T12:56:54;8.60;;;5.07;;
20441;SDS011;10380;52.102;20.614;2023-10-09T12:59:22;6.97;;;4.67;;
20441;SDS011;10380;52.102;20.614;2023-10-09T13:01:50;4.73;;;3.83;;
20441;SDS011;10380;52.102;20.614;2023-10-09T13:04:25;6.37;;;4.13;;
20441;SDS011;10380;52.102;20.614;2023-10-09T13:06:59;8.17;;;3.93;;
20441;SDS011;10380;52.102;20.614;2023-10-09T13:09:30;8.80;;;4.03;;
20441;SDS011;10380;52.102;20.614;2023-10-09T13:12:09;8.30;;;4.10;;
20441;SDS011;10380;52.102;20.614;2023-10-09T13:14:45;6.10;;;3.77;;
20441;SDS011;10380;52.102;20.614;2023-10-09T13:17:16;6.83;;;4.57;;
20441;SDS011;10380;52.102;20.614;2023-10-09T13:19:43;7.27;;;4.20;;
20441;SDS011;10380;52.102;20.614;2023-10-09T13:22:10;6.90;;;4.13;;
20441;SDS011;10380;52.102;20.614;2023-10-09T13:24:40;9.73;;;4.47;;
20441;SDS011;10380;52.102;20.614;2023-10-09T13:27:08;6.60;;;4.07;;
20441;SDS011;10380;52.102;20.614;2023-10-09T13:29:37;8.90;;;4.63;;
20441;SDS011;10380;52.102;20.614;2023-10-09T13:32:07;34.63;;;19.03;;
20441;SDS011;10380;52.102;20.614;2023-10-09T13:34:41;48.13;;;24.87;;
20441;SDS011;10380;52.102;20.614;2023-10-09T13:37:11;24.87;;;13.87;;
20441;SDS011;10380;52.102;20.614;2023-10-09T13:39:40;35.00;;;19.60;;
20441;SDS011;10380;52.102;20.614;2023-10-09T13:42:19;31.67;;;18.97;;
20441;SDS011;10380;52.102;20.614;2023-10-09T13:44:52;16.30;;;11.00;;
20441;SDS011;10380;52.102;20.614;2023-10-09T13:47:22;32.30;;;18.60;;
20441;SDS011;10380;52.102;20.614;2023-10-09T13:49:55;52.03;;;31.07;;
20441;SDS011;10380;52.102;20.614;2023-10-09T13:52:24;64.47;;;38.60;;
20441;SDS011;10380;52.102;20.614;2023-10-09T13:54:51;83.97;;;46.40;;
20441;SDS011;10380;52.102;20.614;2023-10-09T13:57:19;48.17;;;27.53;;
20441;SDS011;10380;52.102;20.614;2023-10-09T13:59:49;47.77;;;28.33;;
20441;SDS011;10380;52.102;20.614;2023-10-09T14:02:16;36.03;;;21.07;;
20441;SDS011;10380;52.102;20.614;2023-10-09T14:04:45;26.83;;;12.93;;
20441;SDS011;10380;52.102;20.614;2023-10-09T14:07:14;38.83;;;24.37;;
20441;SDS011;10380;52.102;20.614;2023-10-09T14:09:47;18.50;;;10.37;;
20441;SDS011;10380;52.102;20.614;2023-10-09T14:12:34;15.43;;;10.47;;
20441;SDS011;10380;52.102;20.614;2023-10-09T14:15:06;11.67;;;6.90;;
20441;SDS011;10380;52.102;20.614;2023-10-09T14:17:38;12.60;;;6.50;;
20441;SDS011;10380;52.102;20.614;2023-10-09T14:20:09;8.93;;;6.33;;
20441;SDS011;10380;52.102;20.614;2023-10-09T14:22:55;12.27;;;8.07;;
20441;SDS011;10380;52.102;20.614;2023-10-09T14:25:22;11.67;;;6.37;;
20441;SDS011;10380;52.102;20.614;2023-10-09T14:27:49;10.93;;;6.03;;
20441;SDS011;10380;52.102;20.614;2023-10-09T14:30:19;9.77;;;5.80;;
20441;SDS011;10380;52.102;20.614;2023-10-09T14:32:57;13.50;;;6.03;;
20441;SDS011;10380;52.102;20.614;2023-10-09T14:35:24;11.33;;;7.20;;
20441;SDS011;10380;52.102;20.614;2023-10-09T14:37:57;9.17;;;6.67;;
20441;SDS011;10380;52.102;20.614;2023-10-09T14:40:24;12.03;;;5.73;;
20441;SDS011;10380;52.102;20.614;2023-10-09T14:42:56;9.37;;;5.90;;
20441;SDS011;10380;52.102;20.614;2023-10-09T14:45:24;10.93;;;6.90;;
20441;SDS011;10380;52.102;20.614;2023-10-09T14:47:53;11.07;;;6.43;;
20441;SDS011;10380;52.102;20.614;2023-10-09T14:50:21;7.53;;;4.90;;
20441;SDS011;10380;52.102;20.614;2023-10-09T14:52:49;9.47;;;5.90;;
20441;SDS011;10380;52.102;20.614;2023-10-09T14:55:19;11.10;;;5.33;;
20441;SDS011;10380;52.102;20.614;2023-10-09T14:57:55;10.57;;;6.60;;
20441;SDS011;10380;52.102;20.614;2023-10-09T15:00:22;9.83;;;5.60;;
20441;SDS011;10380;52.102;20.614;2023-10-09T15:02:51;10.27;;;5.80;;
20441;SDS011;10380;52.102;20.614;2023-10-09T15:05:19;8.60;;;6.13;;
20441;SDS011;10380;52.102;20.614;2023-10-09T15:07:49;17.37;;;11.30;;
20441;SDS011;10380;52.102;20.614;2023-10-09T15:10:16;34.47;;;19.30;;
20441;SDS011;10380;52.102;20.614;2023-10-09T15:12:44;21.80;;;11.33;;
20441;SDS011;10380;52.102;20.614;2023-10-09T15:15:15;21.63;;;11.47;;
20441;SDS011;10380;52.102;20.614;2023-10-09T15:17:42;16.97;;;11.50;;
20441;SDS011;10380;52.102;20.614;2023-10-09T15:20:11;18.63;;;9.97;;
20441;SDS011;10380;52.102;20.614;2023-10-09T15:22:43;15.57;;;9.10;;
20441;SDS011;10380;52.102;20.614;2023-10-09T15:25:11;18.90;;;11.10;;
20441;SDS011;10380;52.102;20.614;2023-10-09T15:27:41;23.00;;;14.13;;
20441;SDS011;10380;52.102;20.614;2023-10-09T15:30:09;16.27;;;10.10;;